Time;durP1;ratioP1;P1;durP2;ratioP2;P2;SDS_P1;SDS_P2;PMS_P1;PMS_P2;Temp;Humidity;BMP_temperature;BMP_pressure;BME280_temperature;BME280_humidity;BME280_pressure;Samples;Min_cycle;Max_cycle;Signal;HPM_P1;HPM_P2
2023/01/19 00:00:09;;;;;;;4.50;4.20;;;-0.40;99.90;;;;;;6133587;23;20396;-80
2023/01/19 00:02:37;;;;;;;4.33;4.13;;;-0.30;99.90;;;;;;6135725;23;20374;-80
2023/01/19 00:05:05;;;;;;;4.25;4.05;;;-0.40;99.90;;;;;;6134586;23;20381;-80
2023/01/19 00:07:32;;;;;;;3.80;3.60;;;-0.40;99.90;;;;;;6134991;23;20409;-80
2023/01/19 00:09:59;;;;;;;2.40;2.30;;;-0.40;99.90;;;;;;6135834;23;20847;-80
2023/01/19 00:12:26;;;;;;;1.85;1.75;;;-0.20;99.90;;;;;;6134018;23;20370;-80
2023/01/19 00:14:53;;;;;;;0.80;0.80;;;0.10;99.90;;;;;;6139139;23;20405;-79
2023/01/19 00:17:20;;;;;;;0.80;0.30;;;0.40;99.90;;;;;;6136915;23;20373;-79
2023/01/19 00:19:46;;;;;;;0.30;0.30;;;1.20;73.20;;;;;;6165499;23;20378;-78
2023/01/19 00:22:13;;;;;;;0.30;0.30;;;1.70;71.50;;;;;;6139301;23;20405;-79
2023/01/19 00:24:40;;;;;;;0.28;0.28;;;2.00;66.50;;;;;;6138976;23;20706;-78
2023/01/19 00:27:07;;;;;;;0.20;0.20;;;2.50;58.30;;;;;;6135258;23;20432;-77
2023/01/19 00:29:34;;;;;;;0.20;0.20;;;2.80;56.90;;;;;;6137665;23;20374;-78
2023/01/19 00:32:02;;;;;;;0.20;0.20;;;3.00;54.80;;;;;;6137561;23;20381;-79
2023/01/19 00:34:35;;;;;;;0.30;0.30;;;3.20;53.00;;;;;;6162006;23;20419;-78
2023/01/19 00:37:03;;;;;;;0.20;0.20;;;3.20;53.70;;;;;;6135267;23;20419;-79
2023/01/19 00:39:30;;;;;;;0.20;0.20;;;3.30;51.90;;;;;;6133267;23;20656;-78
2023/01/19 00:44:42;;;;;;;0.30;0.30;;;3.60;49.10;;;;;;6157847;23;20506;-77
2023/01/19 00:47:09;;;;;;;0.30;0.30;;;3.70;47.90;;;;;;6158915;23;20441;-78
2023/01/19 00:49:36;;;;;;;0.20;0.20;;;3.80;47.50;;;;;;6131884;23;20397;-79
2023/01/19 00:52:03;;;;;;;0.53;0.20;;;3.90;45.50;;;;;;6133392;23;20506;-78
2023/01/19 00:54:30;;;;;;;0.22;0.22;;;4.10;44.60;;;;;;6159358;23;20381;-78
2023/01/19 00:56:57;;;;;;;0.40;0.20;;;4.30;44.00;;;;;;6163128;23;20377;-78
2023/01/19 00:59:24;;;;;;;0.60;0.20;;;4.40;42.80;;;;;;6134228;23;20870;-77
2023/01/19 01:01:51;;;;;;;0.20;0.20;;;4.30;44.20;;;;;;6136448;23;20461;-80
2023/01/19 01:04:18;;;;;;;0.20;0.20;;;4.40;43.50;;;;;;6133800;23;20864;-78
2023/01/19 01:06:45;;;;;;;0.20;0.20;;;4.50;42.40;;;;;;6133422;23;20366;-78
2023/01/19 01:09:12;;;;;;;0.20;0.20;;;4.40;43.30;;;;;;6136765;23;20382;-78
2023/01/19 01:11:40;;;;;;;0.80;0.30;;;4.40;42.00;;;;;;6141223;23;20703;-79
2023/01/19 01:14:09;;;;;;;0.20;0.20;;;4.40;42.00;;;;;;6139254;23;20429;-78
2023/01/19 01:16:36;;;;;;;0.20;0.20;;;4.40;42.30;;;;;;6138270;23;20370;-79
2023/01/19 01:19:03;;;;;;;0.20;0.20;;;4.50;41.90;;;;;;6139272;23;20433;-78
2023/01/19 01:21:30;;;;;;;0.20;0.20;;;4.50;41.20;;;;;;6164012;23;20822;-78
2023/01/19 01:23:56;;;;;;;0.20;0.20;;;4.40;41.90;;;;;;6134910;23;20429;-78
2023/01/19 01:26:24;;;;;;;0.20;0.20;;;4.50;40.80;;;;;;6137088;23;20988;-78
2023/01/19 01:28:53;;;;;;;0.20;0.20;;;4.50;40.70;;;;;;6136607;23;20405;-79
2023/01/19 01:31:20;;;;;;;0.20;0.20;;;4.50;40.30;;;;;;6160480;23;20371;-78
2023/01/19 01:33:47;;;;;;;0.20;0.20;;;4.50;40.20;;;;;;6132436;23;20491;-78
2023/01/19 01:36:14;;;;;;;0.20;0.20;;;4.50;41.10;;;;;;6138268;23;20362;-78
2023/01/19 01:38:41;;;;;;;0.20;0.20;;;4.50;39.40;;;;;;6135498;23;20378;-80
2023/01/19 01:41:08;;;;;;;0.20;0.20;;;4.60;39.60;;;;;;6136473;23;20366;-77
2023/01/19 01:43:50;;;;;;;0.20;0.20;;;4.60;38.30;;;;;;6134844;23;20498;-78
2023/01/19 01:46:18;;;;;;;0.20;0.20;;;4.60;39.50;;;;;;6133847;23;20358;-77
2023/01/19 01:49:09;;;;;;;0.20;0.20;;;4.50;39.50;;;;;;6134391;23;20374;-77
2023/01/19 01:51:39;;;;;;;0.20;0.20;;;4.60;39.90;;;;;;6135257;23;20522;-78
2023/01/19 01:54:15;;;;;;;0.20;0.20;;;4.60;38.70;;;;;;6137332;23;20378;-78
2023/01/19 01:56:48;;;;;;;0.20;0.20;;;4.80;37.70;;;;;;6134567;23;20362;-77
2023/01/19 01:59:28;;;;;;;0.20;0.20;;;4.70;37.80;;;;;;6136838;23;20398;-78
